createdAt,value
2019-03-11T00:02:23.439Z,13.40
2019-03-11T00:04:52.130Z,13.56
2019-03-11T00:07:19.625Z,13.68
2019-03-11T00:09:47.211Z,13.72
2019-03-11T00:12:14.715Z,13.73
2019-03-11T00:14:42.220Z,13.80
2019-03-11T00:17:09.788Z,13.74
2019-03-11T00:19:37.802Z,13.82
2019-03-11T00:22:05.419Z,13.75
2019-03-11T00:24:32.858Z,13.80
2019-03-11T00:27:00.338Z,13.75
2019-03-11T00:29:27.769Z,13.90
2019-03-11T00:31:55.352Z,14.03
2019-03-11T00:34:22.789Z,14.11
2019-03-11T00:36:50.278Z,14.01
2019-03-11T00:39:17.734Z,14.01
2019-03-11T00:41:45.275Z,13.83
2019-03-11T00:44:12.723Z,13.62
2019-03-11T00:46:40.238Z,13.40
2019-03-11T00:49:07.733Z,13.27
2019-03-11T00:51:35.274Z,13.16
2019-03-11T00:54:02.795Z,13.20
2019-03-11T00:59:13.175Z,13.46
2019-03-11T01:01:40.656Z,13.44
2019-03-11T01:04:08.087Z,13.39
2019-03-11T01:06:35.685Z,13.31
2019-03-11T01:09:04.257Z,13.26
2019-03-11T01:11:31.773Z,13.20
2019-03-11T01:13:59.318Z,13.06
2019-03-11T01:16:26.791Z,12.90
2019-03-11T01:18:54.230Z,12.75
2019-03-11T01:21:21.744Z,12.63
2019-03-11T01:23:49.239Z,12.63
2019-03-11T01:26:16.871Z,12.28
2019-03-11T01:28:44.405Z,11.89
2019-03-11T01:31:11.912Z,11.64
2019-03-11T01:33:39.437Z,11.48
2019-03-11T01:36:06.875Z,11.40
2019-03-11T01:38:34.332Z,11.15
2019-03-11T01:41:01.780Z,10.99
2019-03-11T01:43:29.290Z,10.92
2019-03-11T01:45:56.861Z,10.87
2019-03-11T01:48:24.427Z,10.88
2019-03-11T01:50:51.816Z,10.80
2019-03-11T01:53:19.315Z,10.82
2019-03-11T01:55:46.795Z,10.76
2019-03-11T01:58:14.294Z,10.80
2019-03-11T02:00:41.728Z,10.80
2019-03-11T02:03:09.264Z,10.83
2019-03-11T02:05:36.879Z,10.82
2019-03-11T02:08:04.551Z,10.87
2019-03-11T02:10:32.008Z,10.92
2019-03-11T02:12:59.593Z,10.91
2019-03-11T02:15:27.072Z,10.97
2019-03-11T02:17:54.581Z,10.98
2019-03-11T02:20:22.042Z,11.00
2019-03-11T02:22:49.706Z,11.00
2019-03-11T02:25:17.299Z,11.00
2019-03-11T02:27:44.762Z,11.03
2019-03-11T02:30:12.486Z,11.06
2019-03-11T02:32:39.971Z,11.14
2019-03-11T02:35:07.791Z,11.11
2019-03-11T02:37:35.264Z,11.03
2019-03-11T02:40:02.819Z,10.92
2019-03-11T02:42:30.346Z,10.99
2019-03-11T02:44:57.811Z,10.99
2019-03-11T02:47:25.272Z,10.92
2019-03-11T02:49:52.760Z,10.90
2019-03-11T02:52:20.334Z,10.77
2019-03-11T02:54:50.058Z,10.81
2019-03-11T02:57:17.546Z,10.66
2019-03-11T02:59:45.091Z,10.64
2019-03-11T03:02:50.379Z,10.54
2019-03-11T03:05:28.101Z,10.47
2019-03-11T03:07:55.579Z,10.52
2019-03-11T03:10:23.350Z,10.65
2019-03-11T03:12:50.782Z,10.61
2019-03-11T03:15:18.330Z,10.47
2019-03-11T03:17:45.748Z,10.51
2019-03-11T03:20:13.571Z,10.54
2019-03-11T03:22:41.387Z,10.53
2019-03-11T03:25:09.829Z,10.48
2019-03-11T03:27:39.489Z,10.40
2019-03-11T03:30:10.427Z,10.50
2019-03-11T03:32:38.058Z,10.47
2019-03-11T03:35:05.837Z,10.48
2019-03-11T03:37:33.688Z,10.53
2019-03-11T03:40:01.152Z,10.59
2019-03-11T03:42:28.687Z,10.54
2019-03-11T03:45:25.578Z,10.36
2019-03-11T03:47:53.311Z,10.36
2019-03-11T03:50:21.500Z,10.42
2019-03-11T03:52:49.113Z,10.31
2019-03-11T03:55:16.631Z,10.41
2019-03-11T03:57:44.250Z,10.40
2019-03-11T04:00:11.907Z,10.55
2019-03-11T04:02:39.373Z,10.42
2019-03-11T04:05:08.064Z,10.44
2019-03-11T04:07:35.635Z,10.43
2019-03-11T04:10:03.993Z,10.30
2019-03-11T04:12:31.586Z,10.36
2019-03-11T04:14:59.366Z,10.41
2019-03-11T04:17:26.866Z,10.49
2019-03-11T04:19:54.250Z,10.51
2019-03-11T04:22:21.864Z,10.61
2019-03-11T04:24:49.450Z,10.76
2019-03-11T04:27:17.418Z,10.88
2019-03-11T04:29:44.967Z,10.91
2019-03-11T04:32:12.461Z,10.80
2019-03-11T04:34:39.942Z,10.96
2019-03-11T04:37:07.402Z,11.17
2019-03-11T04:39:34.848Z,11.15
2019-03-11T04:42:02.362Z,11.14
2019-03-11T04:44:29.949Z,10.82
2019-03-11T04:46:57.406Z,10.35
2019-03-11T04:49:24.934Z,10.07
2019-03-11T04:51:52.346Z,9.71
2019-03-11T04:54:19.871Z,9.44
2019-03-11T04:56:47.425Z,9.36
2019-03-11T04:59:14.916Z,9.41
2019-03-11T05:01:43.009Z,9.43
2019-03-11T05:04:10.433Z,9.56
2019-03-11T05:06:37.941Z,9.78
2019-03-11T05:09:05.804Z,9.85
2019-03-11T05:11:33.301Z,10.03
2019-03-11T05:14:01.107Z,10.04
2019-03-11T05:16:28.737Z,9.16
2019-03-11T05:18:56.314Z,10.10
2019-03-11T05:21:23.751Z,9.97
2019-03-11T05:23:51.301Z,9.94
2019-03-11T05:26:20.046Z,9.90
2019-03-11T05:28:49.371Z,10.16
2019-03-11T05:31:16.950Z,10.14
2019-03-11T05:33:44.570Z,10.36
2019-03-11T05:36:12.230Z,10.32
2019-03-11T05:38:39.606Z,10.40
2019-03-11T05:41:08.841Z,10.53
2019-03-11T05:43:37.931Z,10.66
2019-03-11T05:46:05.430Z,10.86
2019-03-11T05:48:33.042Z,10.70
2019-03-11T05:51:00.533Z,10.73
2019-03-11T05:53:28.049Z,10.63
2019-03-11T05:55:55.569Z,10.68
2019-03-11T05:58:23.216Z,10.75
2019-03-11T06:00:50.729Z,10.95
2019-03-11T06:03:18.230Z,11.20
2019-03-11T06:05:45.723Z,11.36
2019-03-11T06:08:22.758Z,11.40
2019-03-11T06:10:50.354Z,11.35
2019-03-11T06:13:17.856Z,11.23
2019-03-11T06:15:45.388Z,11.02
2019-03-11T06:18:13.575Z,11.02
2019-03-11T06:21:06.837Z,11.10
2019-03-11T06:23:34.323Z,11.17
2019-03-11T06:26:01.810Z,11.58
2019-03-11T06:28:29.223Z,11.92
2019-03-11T06:30:56.786Z,12.12
2019-03-11T06:33:24.364Z,12.35
2019-03-11T06:35:51.959Z,12.44
2019-03-11T06:38:19.481Z,12.64
2019-03-11T06:40:46.992Z,13.06
2019-03-11T06:43:14.492Z,13.05
2019-03-11T06:45:41.973Z,13.20
2019-03-11T06:48:09.470Z,13.50
2019-03-11T06:50:37.032Z,13.56
2019-03-11T06:53:04.431Z,13.45
2019-03-11T06:55:31.990Z,13.74
2019-03-11T06:58:00.769Z,13.74
2019-03-11T07:00:28.292Z,13.95
2019-03-11T07:02:55.889Z,13.95
2019-03-11T07:05:23.322Z,13.98
2019-03-11T07:07:50.855Z,13.84
2019-03-11T07:10:18.367Z,13.66
2019-03-11T07:12:45.780Z,13.57
2019-03-11T07:15:13.549Z,13.64
2019-03-11T07:17:41.167Z,13.59
2019-03-11T07:20:10.189Z,13.73
2019-03-11T07:22:37.733Z,13.62
2019-03-11T07:25:05.682Z,13.69
2019-03-11T07:27:33.118Z,13.78
2019-03-11T07:30:00.586Z,13.83
2019-03-11T07:32:28.355Z,13.81
2019-03-11T07:34:55.775Z,13.98
2019-03-11T07:37:23.377Z,14.04
2019-03-11T07:39:51.024Z,13.90
2019-03-11T07:42:20.939Z,13.88
2019-03-11T07:44:48.471Z,14.01
2019-03-11T07:47:15.979Z,14.05
2019-03-11T07:49:43.412Z,13.95
2019-03-11T07:52:10.873Z,14.00
2019-03-11T07:54:38.305Z,14.03
2019-03-11T07:57:06.448Z,14.28
2019-03-11T07:59:34.544Z,14.32
2019-03-11T08:02:02.171Z,14.33
2019-03-11T08:04:29.817Z,14.46
2019-03-11T08:06:57.398Z,14.48
2019-03-11T08:09:24.803Z,14.50
2019-03-11T08:11:52.312Z,14.62
2019-03-11T08:14:19.878Z,14.78
2019-03-11T08:16:47.275Z,14.82
2019-03-11T08:19:14.951Z,15.04
2019-03-11T08:21:42.591Z,15.55
2019-03-11T08:24:10.184Z,15.83
2019-03-11T08:26:39.002Z,15.82
2019-03-11T08:29:06.520Z,15.70
2019-03-11T08:31:34.074Z,15.73
2019-03-11T08:34:01.871Z,15.56
2019-03-11T08:36:29.374Z,15.97
2019-03-11T08:38:56.856Z,15.89
2019-03-11T08:41:24.415Z,15.70
2019-03-11T08:43:51.886Z,15.79
2019-03-11T08:46:19.456Z,16.12
2019-03-11T08:48:46.968Z,16.03
2019-03-11T08:51:14.389Z,16.11
2019-03-11T08:53:42.010Z,16.41
2019-03-11T08:56:09.527Z,16.25
2019-03-11T08:58:36.925Z,16.36
2019-03-11T09:01:04.516Z,16.11
2019-03-11T09:03:32.092Z,16.05
2019-03-11T09:05:59.649Z,16.02
2019-03-11T09:08:27.100Z,16.35
2019-03-11T09:10:55.027Z,16.47
2019-03-11T09:13:22.559Z,16.31
2019-03-11T09:15:52.779Z,16.14
2019-03-11T09:18:19.721Z,16.17
2019-03-11T09:20:47.271Z,16.54
2019-03-11T09:23:14.806Z,16.99
2019-03-11T09:25:42.334Z,17.48
2019-03-11T09:28:09.822Z,17.60
2019-03-11T09:30:37.325Z,18.25
2019-03-11T09:33:04.859Z,18.13
2019-03-11T09:35:32.424Z,17.88
2019-03-11T09:38:00.027Z,17.65
2019-03-11T09:40:27.570Z,18.02
2019-03-11T09:42:54.995Z,17.84
2019-03-11T09:45:24.337Z,17.65
2019-03-11T09:47:52.001Z,17.48
2019-03-11T09:50:19.616Z,18.01
2019-03-11T09:52:47.118Z,18.25
2019-03-11T09:55:14.810Z,18.00
2019-03-11T09:57:42.417Z,18.36
2019-03-11T10:00:13.885Z,18.76
2019-03-11T10:02:51.727Z,19.11
2019-03-11T10:05:11.137Z,18.90
2019-03-11T10:07:38.713Z,18.61
2019-03-11T10:10:08.034Z,18.74
2019-03-11T10:12:35.512Z,18.82
2019-03-11T10:15:03.559Z,18.77
2019-03-11T10:17:31.096Z,18.35
2019-03-11T10:19:58.650Z,18.28
2019-03-11T10:22:26.301Z,18.14
2019-03-11T10:24:53.825Z,17.63
2019-03-11T10:27:21.420Z,17.20
2019-03-11T10:29:48.932Z,16.97
2019-03-11T10:32:16.394Z,16.92
2019-03-11T10:34:43.913Z,16.87
2019-03-11T10:37:11.450Z,16.90
2019-03-11T10:39:38.963Z,16.87
2019-03-11T10:42:06.346Z,16.68
2019-03-11T10:44:33.815Z,16.49
2019-03-11T10:47:01.371Z,16.30
2019-03-11T10:49:29.847Z,16.32
2019-03-11T10:51:57.354Z,16.50
2019-03-11T10:54:24.801Z,16.58
2019-03-11T10:56:52.329Z,16.37
2019-03-11T10:59:19.974Z,16.17
2019-03-11T11:01:47.639Z,16.20
2019-03-11T11:04:15.188Z,16.25
2019-03-11T11:06:42.663Z,16.43
2019-03-11T11:09:10.578Z,16.18
2019-03-11T11:11:38.100Z,16.03
2019-03-11T11:14:05.559Z,16.01
2019-03-11T11:16:33.128Z,16.15
2019-03-11T11:19:00.670Z,16.23
2019-03-11T11:21:28.228Z,16.33
2019-03-11T11:23:55.764Z,16.67
2019-03-11T11:26:23.288Z,16.97
2019-03-11T11:28:50.910Z,17.12
2019-03-11T11:31:18.352Z,17.27
2019-03-11T11:33:45.853Z,17.45
2019-03-11T11:36:13.360Z,17.47
2019-03-11T11:38:40.800Z,17.44
2019-03-11T11:41:08.265Z,16.91
2019-03-11T11:43:35.757Z,17.02
2019-03-11T11:46:03.349Z,17.43
2019-03-11T11:48:30.817Z,17.62
2019-03-11T11:50:58.330Z,17.80
2019-03-11T11:53:25.831Z,17.98
2019-03-11T11:55:57.545Z,18.06
2019-03-11T11:58:22.810Z,17.86
2019-03-11T12:00:50.795Z,17.67
2019-03-11T12:03:18.904Z,17.82
2019-03-11T12:05:46.312Z,17.44
2019-03-11T12:08:14.016Z,17.15
2019-03-11T12:10:41.517Z,17.07
2019-03-11T12:13:09.261Z,16.78
2019-03-11T12:15:36.859Z,16.61
2019-03-11T12:18:04.720Z,16.63
2019-03-11T12:20:32.438Z,16.63
2019-03-11T12:23:00.102Z,17.02
2019-03-11T12:25:27.768Z,17.30
2019-03-11T12:27:57.999Z,17.13
2019-03-11T12:30:25.561Z,17.28
2019-03-11T12:32:53.374Z,17.32
2019-03-11T12:35:21.017Z,17.07
2019-03-11T12:37:48.639Z,17.08
2019-03-11T12:40:16.360Z,16.94
2019-03-11T12:42:44.036Z,16.92
2019-03-11T12:45:12.457Z,16.94
2019-03-11T12:47:39.987Z,16.96
2019-03-11T12:50:10.887Z,17.04
2019-03-11T12:52:38.370Z,17.07
2019-03-11T12:55:05.949Z,17.43
2019-03-11T12:57:33.399Z,17.27
2019-03-11T13:00:00.906Z,17.62
2019-03-11T13:02:28.400Z,17.67
2019-03-11T13:04:56.053Z,18.03
2019-03-11T13:07:23.583Z,17.65
2019-03-11T13:09:50.966Z,17.67
2019-03-11T13:12:18.462Z,17.72
2019-03-11T13:14:45.947Z,17.50
2019-03-11T13:17:13.402Z,17.30
2019-03-11T13:19:40.886Z,17.46
2019-03-11T13:22:08.391Z,17.54
2019-03-11T13:24:35.881Z,17.50
2019-03-11T13:27:03.471Z,17.55
2019-03-11T13:29:30.967Z,17.57
2019-03-11T13:31:58.414Z,17.70
2019-03-11T13:34:26.033Z,17.76
2019-03-11T13:36:53.572Z,17.82
2019-03-11T13:39:21.081Z,17.67
2019-03-11T13:41:48.632Z,17.66
2019-03-11T13:44:16.106Z,17.34
2019-03-11T13:46:43.826Z,17.37
2019-03-11T13:49:11.455Z,17.10
2019-03-11T13:51:39.023Z,16.93
2019-03-11T13:54:06.723Z,16.86
2019-03-11T13:56:34.275Z,17.00
2019-03-11T13:59:01.734Z,17.30
2019-03-11T14:01:29.213Z,17.47
2019-03-11T14:03:56.675Z,17.35
2019-03-11T14:06:24.193Z,17.28
2019-03-11T14:08:51.634Z,17.18
2019-03-11T14:11:19.192Z,17.12
2019-03-11T14:13:46.707Z,17.19
2019-03-11T14:16:14.338Z,16.95
2019-03-11T14:18:41.808Z,17.24
2019-03-11T14:21:09.986Z,17.11
2019-03-11T14:23:37.694Z,17.18
2019-03-11T14:26:05.167Z,17.30
2019-03-11T14:28:32.727Z,17.36
2019-03-11T14:31:00.235Z,17.31
2019-03-11T14:33:27.695Z,17.43
2019-03-11T14:35:55.323Z,17.31
2019-03-11T14:38:22.819Z,16.92
2019-03-11T14:40:50.358Z,16.74
2019-03-11T14:43:17.916Z,16.44
2019-03-11T14:45:46.953Z,16.29
2019-03-11T14:48:14.423Z,16.60
2019-03-11T14:50:44.543Z,16.68
2019-03-11T14:53:12.123Z,16.37
2019-03-11T14:55:39.599Z,16.33
2019-03-11T14:58:07.160Z,16.14
2019-03-11T15:00:34.824Z,16.23
2019-03-11T15:03:02.338Z,16.08
2019-03-11T15:05:29.927Z,15.51
2019-03-11T15:07:57.491Z,15.59
2019-03-11T15:10:24.942Z,15.59
2019-03-11T15:12:52.436Z,15.59
2019-03-11T15:15:20.103Z,15.31
2019-03-11T15:17:47.756Z,15.23
2019-03-11T15:20:15.407Z,15.24
2019-03-11T15:22:43.019Z,14.72
2019-03-11T15:25:10.848Z,14.37
2019-03-11T15:27:38.473Z,14.12
2019-03-11T15:30:07.394Z,13.87
2019-03-11T15:32:34.938Z,13.68
2019-03-11T15:35:02.831Z,13.81
2019-03-11T15:37:30.376Z,13.94
2019-03-11T15:39:57.907Z,13.79
2019-03-11T15:42:25.816Z,13.51
2019-03-11T15:44:53.257Z,12.86
2019-03-11T15:47:20.816Z,12.99
2019-03-11T15:49:48.295Z,12.65
2019-03-11T15:52:15.782Z,12.35
2019-03-11T15:54:43.267Z,12.23
2019-03-11T15:57:10.778Z,12.39
2019-03-11T15:59:38.264Z,12.43
2019-03-11T16:02:06.371Z,12.40
2019-03-11T16:04:33.973Z,12.25
2019-03-11T16:07:01.360Z,12.09
2019-03-11T16:09:28.951Z,12.00
2019-03-11T16:11:56.918Z,12.12
2019-03-11T16:14:24.379Z,12.15
2019-03-11T16:16:51.883Z,11.81
2019-03-11T16:19:19.368Z,11.65
2019-03-11T16:21:46.886Z,11.43
2019-03-11T16:24:14.676Z,11.35
2019-03-11T16:26:42.167Z,11.28
2019-03-11T16:29:09.806Z,11.60
2019-03-11T16:31:37.445Z,11.56
2019-03-11T16:34:05.095Z,11.21
2019-03-11T16:36:32.678Z,10.85
2019-03-11T16:39:00.617Z,10.81
2019-03-11T16:41:28.725Z,10.89
2019-03-11T16:43:56.424Z,10.83
2019-03-11T16:46:24.185Z,10.99
2019-03-11T16:48:51.597Z,10.73
2019-03-11T16:51:19.900Z,10.46
2019-03-11T16:53:47.419Z,10.52
2019-03-11T16:56:15.042Z,10.78
2019-03-11T16:58:42.491Z,10.65
2019-03-11T17:01:11.006Z,10.68
2019-03-11T17:03:38.640Z,10.72
2019-03-11T17:06:06.211Z,10.39
2019-03-11T17:08:33.703Z,10.26
2019-03-11T17:11:01.200Z,10.41
2019-03-11T17:13:28.778Z,10.36
2019-03-11T17:15:56.301Z,10.07
2019-03-11T17:18:23.976Z,10.10
2019-03-11T17:20:51.625Z,10.10
2019-03-11T17:23:19.167Z,9.87
2019-03-11T17:25:46.623Z,9.66
2019-03-11T17:28:14.099Z,9.79
2019-03-11T17:30:41.554Z,9.55
2019-03-11T17:33:09.152Z,9.38
2019-03-11T17:35:37.844Z,9.38
2019-03-11T17:38:06.671Z,9.15
2019-03-11T17:40:35.027Z,9.40
2019-03-11T17:43:02.822Z,9.34
2019-03-11T17:45:30.764Z,9.07
2019-03-11T17:47:58.454Z,9.03
2019-03-11T17:50:26.132Z,9.00
2019-03-11T17:52:53.861Z,8.87
2019-03-11T17:55:21.468Z,8.42
2019-03-11T17:57:49.239Z,8.40
2019-03-11T18:00:25.375Z,8.21
2019-03-11T18:02:53.666Z,8.13
2019-03-11T18:05:21.509Z,7.99
2019-03-11T18:07:49.262Z,7.83
2019-03-11T18:10:16.977Z,8.17
2019-03-11T18:12:44.605Z,8.12
2019-03-11T18:15:13.136Z,8.18
2019-03-11T18:17:40.899Z,8.19
2019-03-11T18:20:10.550Z,8.28
2019-03-11T18:22:38.136Z,8.12
2019-03-11T18:25:05.753Z,8.04
2019-03-11T18:27:33.313Z,7.92
2019-03-11T18:30:01.157Z,7.67
2019-03-11T18:32:30.807Z,7.87
2019-03-11T18:35:00.408Z,7.89
2019-03-11T18:37:27.876Z,7.91
2019-03-11T18:39:55.429Z,7.82
2019-03-11T18:42:26.187Z,7.81
2019-03-11T18:44:52.632Z,7.99
2019-03-11T18:47:20.614Z,7.89
2019-03-11T18:49:49.013Z,7.70
2019-03-11T18:52:16.929Z,7.63
2019-03-11T18:54:45.056Z,7.88
2019-03-11T18:57:12.661Z,7.70
2019-03-11T18:59:40.931Z,7.63
2019-03-11T19:02:08.729Z,7.67
2019-03-11T19:04:36.257Z,7.75
2019-03-11T19:07:06.737Z,7.61
2019-03-11T19:09:34.293Z,7.47
2019-03-11T19:12:01.839Z,7.41
2019-03-11T19:14:29.348Z,7.70
2019-03-11T19:16:56.767Z,7.68
2019-03-11T19:19:24.318Z,7.95
2019-03-11T19:21:54.115Z,7.59
2019-03-11T19:24:21.666Z,7.36
2019-03-11T19:26:49.341Z,7.48
2019-03-11T19:29:17.137Z,7.27
2019-03-11T19:31:44.726Z,7.13
2019-03-11T19:34:12.262Z,7.51
2019-03-11T19:36:39.733Z,7.61
2019-03-11T19:39:11.606Z,7.88
2019-03-11T19:41:39.923Z,7.65
2019-03-11T19:44:07.595Z,7.55
2019-03-11T19:46:35.060Z,7.72
2019-03-11T19:49:02.564Z,7.44
2019-03-11T19:51:30.121Z,7.48
2019-03-11T19:53:57.590Z,7.46
2019-03-11T19:56:25.094Z,7.54
2019-03-11T19:58:52.593Z,7.47
2019-03-11T20:01:20.097Z,7.58
2019-03-11T20:03:47.606Z,7.86
2019-03-11T20:06:15.246Z,7.75
2019-03-11T20:08:42.729Z,7.21
2019-03-11T20:11:10.811Z,7.32
2019-03-11T20:13:38.378Z,7.00
2019-03-11T20:16:06.046Z,6.95
2019-03-11T20:18:33.608Z,7.08
2019-03-11T20:21:01.081Z,7.27
2019-03-11T20:23:28.813Z,7.14
2019-03-11T20:25:56.366Z,7.05
2019-03-11T20:28:23.804Z,7.12
2019-03-11T20:30:51.378Z,6.92
2019-03-11T20:33:19.052Z,7.05
2019-03-11T20:35:46.604Z,6.77
2019-03-11T20:38:14.443Z,6.48
2019-03-11T20:40:42.032Z,6.40
2019-03-11T20:43:09.586Z,6.48
2019-03-11T20:45:37.143Z,6.62
2019-03-11T20:48:04.646Z,6.82
2019-03-11T20:50:41.453Z,6.94
2019-03-11T20:53:01.595Z,7.01
2019-03-11T20:55:29.229Z,6.76
2019-03-11T20:57:56.720Z,6.73
2019-03-11T21:00:24.879Z,6.69
2019-03-11T21:02:52.401Z,6.86
2019-03-11T21:05:22.548Z,6.71
2019-03-11T21:07:50.088Z,7.00
2019-03-11T21:10:17.721Z,6.86
2019-03-11T21:12:45.341Z,6.78
2019-03-11T21:15:13.380Z,6.82
2019-03-11T21:17:40.937Z,6.89
2019-03-11T21:20:10.057Z,6.83
2019-03-11T21:22:37.723Z,6.60
2019-03-11T21:25:06.104Z,6.41
2019-03-11T21:27:33.690Z,6.36
2019-03-11T21:30:01.153Z,6.58
2019-03-11T21:32:28.580Z,6.80
2019-03-11T21:34:56.081Z,6.75
2019-03-11T21:37:23.690Z,6.85
2019-03-11T21:39:51.361Z,6.92
2019-03-11T21:42:18.908Z,6.93
2019-03-11T21:44:46.435Z,7.00
2019-03-11T21:47:14.206Z,7.00
2019-03-11T21:49:41.669Z,7.15
2019-03-11T21:52:09.238Z,7.07
2019-03-11T21:54:36.805Z,6.94
2019-03-11T21:57:04.471Z,7.05
2019-03-11T21:59:32.019Z,7.10
2019-03-11T22:01:59.617Z,7.01
2019-03-11T22:04:27.074Z,6.91
2019-03-11T22:06:55.037Z,6.87
2019-03-11T22:09:22.426Z,6.75
2019-03-11T22:11:50.049Z,6.40
2019-03-11T22:14:17.574Z,6.78
2019-03-11T22:16:44.983Z,6.72
2019-03-11T22:19:12.490Z,6.75
2019-03-11T22:21:39.942Z,6.84
2019-03-11T22:24:07.354Z,6.82
2019-03-11T22:26:34.871Z,6.84
2019-03-11T22:29:02.491Z,6.47
2019-03-11T22:31:30.150Z,6.55
2019-03-11T22:33:57.639Z,6.22
2019-03-11T22:36:25.147Z,6.37
2019-03-11T22:38:52.553Z,6.42
2019-03-11T22:41:20.026Z,6.38
2019-03-11T22:43:47.488Z,6.29
2019-03-11T22:46:14.929Z,6.29
2019-03-11T22:48:42.580Z,6.32
2019-03-11T22:51:10.033Z,6.29
2019-03-11T22:53:37.493Z,6.22
2019-03-11T22:56:05.022Z,6.22
2019-03-11T22:58:32.514Z,6.52
2019-03-11T23:01:04.565Z,6.50
2019-03-11T23:03:32.163Z,6.31
2019-03-11T23:05:59.757Z,6.51
2019-03-11T23:08:27.453Z,6.46
2019-03-11T23:10:54.995Z,6.06
2019-03-11T23:13:22.564Z,5.96
2019-03-11T23:15:50.026Z,5.93
2019-03-11T23:18:17.624Z,6.17
2019-03-11T23:20:45.179Z,6.23
2019-03-11T23:23:12.617Z,6.11
2019-03-11T23:25:40.133Z,6.13
2019-03-11T23:28:07.675Z,6.16
2019-03-11T23:30:35.139Z,6.10
2019-03-11T23:33:02.539Z,5.82
2019-03-11T23:35:30.305Z,5.98
2019-03-11T23:37:57.777Z,5.91
2019-03-11T23:40:25.279Z,5.95
2019-03-11T23:42:52.733Z,5.86
2019-03-11T23:45:20.731Z,5.66
2019-03-11T23:47:48.149Z,5.64
2019-03-11T23:50:19.051Z,5.64
2019-03-11T23:52:45.248Z,5.63
2019-03-11T23:55:13.038Z,5.58
2019-03-11T23:57:40.469Z,5.65
